This is the latest recevied weather packets stored in our database for station/object KM5R. If no packets are shown the sender has not sent any weather packets the latest 10 day(s).
| Time | Temp. | Humidity | Pressure | Rain* | Wind** | Luminosity | Snow |
|---|---|---|---|---|---|---|---|
| 1777602599 | 15° C | 91% | 1016.6 hPa | 1.78 mm | - | 0 W/m² | - |
| 1777602295 | 15° C | 91% | 1016.4 hPa | 1.78 mm | - | 0 W/m² | - |
| 1777601990 | 15° C | 91% | 1016.3 hPa | 0 mm | - | 0 W/m² | - |
| 1777601686 | 15° C | 91% | 1016.1 hPa | 0 mm | - | 0 W/m² | - |
| 1777601382 | 15° C | 91% | 1016 hPa | 0 mm | - | 0 W/m² | - |
| 1777601078 | 15.56° C | 91% | 1015.7 hPa | 0 mm | - | 0 W/m² | - |
| 1777600471 | 15.56° C | 91% | 1015.3 hPa | 0 mm | - | 0 W/m² | - |
| 1777600167 | 15.56° C | 91% | 1015.1 hPa | 0 mm | - | 0 W/m² | - |
| 1777587418 | 15.56° C | 91% | 1014.1 hPa | 0 mm | - | 39 W/m² | - |
| 1777584081 | 15.56° C | 91% | 1013.6 hPa | 1.78 mm | - | 102 W/m² | - |
| 1777583780 | 15.56° C | 91% | 1013.8 hPa | 0 mm | - | 82 W/m² | - |
| 1777582568 | 15° C | 91% | 1014.7 hPa | 0 mm | - | 52 W/m² | - |
| 1777582263 | 15° C | 91% | 1014.2 hPa | 0 mm | - | 48 W/m² | - |
| 1777581350 | 15.56° C | 91% | 1014.4 hPa | 0 mm | - | 55 W/m² | - |
| 1777580744 | 15.56° C | 91% | 1014.3 hPa | 0 mm | - | 53 W/m² | - |
| 1777580442 | 15.56° C | 91% | 1014.3 hPa | 0 mm | - | 77 W/m² | - |
| 1777580136 | 15.56° C | 91% | 1014.8 hPa | 0 mm | - | 47 W/m² | - |
| 1777579833 | 15.56° C | 91% | 1015.1 hPa | 0 mm | - | 39 W/m² | - |
| 1777579532 | 15.56° C | 91% | 1014.6 hPa | 0 mm | - | 40 W/m² | - |
| 1777578618 | 15.56° C | 91% | 1014.5 hPa | 0 mm | - | 66 W/m² | - |
| 1777578318 | 15.56° C | 91% | 1014.9 hPa | 0 mm | - | 54 W/m² | - |
| 1777577709 | 15.56° C | 91% | 1015.1 hPa | 0 mm | - | 52 W/m² | - |
| 1777577406 | 15.56° C | 91% | 1015 hPa | 0 mm | - | 61 W/m² | - |
| 1777577103 | 15.56° C | 91% | 1014.8 hPa | 0 mm | - | 73 W/m² | - |
| 1777576799 | 15.56° C | 91% | 1014.6 hPa | 0 mm | - | 54 W/m² | - |
* Rain latest hour (hover to see other rain measurements)
** Current wind speed in m/s (hover to see current wind gust speed)